Dearborn Heights, Michigan
Current Conditions -  °F | °C
As of 9:53 AM on Monday 22 Dec 2014 (Local Time) from KDTW Reporting Station
Haze Haze  
Wind Chill: 25°   Ceiling: Unl
Heat Index: 31°   Visibility: 4mi
Dew Point: 27°   Wind: 6mph
Humidity: 85%   Direction: 80°E
Pressure: 30.1"   Gusts: NA
Location:  42.33°N, 83.28°W
Report Text: KDTW 221453Z 08005KT 4SM BR FEW140 SCT220 M01/M03 A3010 RMK AO2 SLP199 T10061028 58004
Loading
Personal Weather Stations






























Interactive Weather Map New forecast layout! Learn more

10-Day Weather Forecast

Advertisements
Track Severe Weather on mobile